Springfield, Minnesota
Current Conditions -  °F | °C
As of 8:13 AM on Saturday 22 Nov 2014 (Local Time) from KRWF Reporting Station
Haze Haze  
Wind Chill: 24°   Ceiling: 200
Heat Index: 32°   Visibility: 0.75mi
Dew Point: 32°   Wind: 9mph
Humidity: 100%   Direction: 200°SSW
Pressure: 29.74"   Gusts: NA
Location:  44.24°N, 94.98°W
Report Text: KRWF 221413Z AUTO 20008KT 3/4SM BR OVC002 00/00 A2974 RMK AO2 T00000000
Loading
Personal Weather Stations






























Interactive Weather Map New forecast layout! Learn more

10-Day Weather Forecast

Advertisements
Track Severe Weather on mobile